Time;durP1;ratioP1;P1;durP2;ratioP2;P2;SDS_P1;SDS_P2;PMS_P1;PMS_P2;Temp;Humidity;BMP_temperature;BMP_pressure;BME280_temperature;BME280_humidity;BME280_pressure;Samples;Min_cycle;Max_cycle;Signal;HPM_P1;HPM_P2
2023/05/05 00:02:01;;;;;;;2.92;1.83;;;16.90;99.90;;;;;;4978222;28;20035;-71
2023/05/05 00:04:27;;;;;;;4.30;2.00;;;16.90;99.90;;;;;;4991002;28;20022;-71
2023/05/05 00:06:53;;;;;;;3.97;2.30;;;16.80;99.90;;;;;;4978292;28;20646;-71
2023/05/05 00:09:19;;;;;;;3.20;1.80;;;16.70;99.90;;;;;;4989896;28;20035;-71
2023/05/05 00:11:44;;;;;;;5.05;2.22;;;16.70;99.90;;;;;;4977908;28;20032;-71
2023/05/05 00:14:10;;;;;;;3.85;2.08;;;16.70;99.90;;;;;;4989396;28;20027;-70
2023/05/05 00:16:37;;;;;;;3.47;1.98;;;16.30;99.90;;;;;;4981235;28;20110;-71
2023/05/05 00:19:03;;;;;;;6.72;1.95;;;16.50;99.90;;;;;;4989770;28;20034;-70
2023/05/05 00:21:28;;;;;;;4.20;2.10;;;16.40;99.90;;;;;;4981644;28;20051;-71
2023/05/05 00:23:54;;;;;;;8.95;2.80;;;16.00;99.90;;;;;;5002398;28;20033;-70
2023/05/05 00:26:20;;;;;;;3.45;1.92;;;16.10;99.90;;;;;;4984249;28;20108;-70
2023/05/05 00:28:47;;;;;;;5.93;1.70;;;16.20;99.90;;;;;;5003586;28;20026;-71
2023/05/05 00:31:16;;;;;;;4.03;2.20;;;16.30;99.90;;;;;;4989805;28;20417;-71
2023/05/05 00:33:42;;;;;;;4.00;1.70;;;16.40;99.90;;;;;;5002249;28;20037;-71
2023/05/05 00:36:08;;;;;;;3.53;2.17;;;16.40;99.90;;;;;;4990381;28;20043;-71
2023/05/05 00:38:34;;;;;;;3.72;1.77;;;16.50;99.90;;;;;;5000447;28;20038;-70
2023/05/05 00:41:00;;;;;;;4.65;2.30;;;16.60;99.90;;;;;;4991872;28;20490;-71
2023/05/05 00:43:26;;;;;;;4.18;2.28;;;16.60;99.90;;;;;;4997848;28;20192;-70
2023/05/05 00:46:08;;;;;;;4.38;2.10;;;16.60;99.90;;;;;;4997994;28;20078;-71
2023/05/05 00:48:34;;;;;;;3.70;2.30;;;16.70;99.90;;;;;;4998961;28;20085;-70
2023/05/05 00:51:00;;;;;;;4.95;1.70;;;16.70;99.90;;;;;;4990330;28;20043;-71
2023/05/05 00:53:27;;;;;;;6.00;2.03;;;16.70;99.90;;;;;;4997299;28;20434;-71
2023/05/05 00:55:53;;;;;;;3.10;1.90;;;16.50;99.90;;;;;;4992391;28;20081;-70
2023/05/05 00:58:18;;;;;;;6.72;2.55;;;16.50;99.90;;;;;;4980398;28;20022;-70
2023/05/05 01:00:44;;;;;;;4.35;2.22;;;16.30;99.90;;;;;;4992360;28;20042;-71
2023/05/05 01:03:13;;;;;;;4.05;2.38;;;16.30;99.90;;;;;;4981570;28;20407;-70
2023/05/05 01:06:34;;;;;;;4.05;2.08;;;16.20;99.90;;;;;;4972042;28;20105;-71
2023/05/05 01:09:28;;;;;;;3.53;2.20;;;16.10;99.90;;;;;;4952542;28;20123;-70
2023/05/05 01:12:24;;;;;;;3.78;1.90;;;16.10;99.90;;;;;;4963933;28;20290;-71
2023/05/05 01:15:14;;;;;;;3.40;2.42;;;16.20;99.90;;;;;;4990024;28;20035;-70
2023/05/05 01:18:03;;;;;;;6.75;2.28;;;16.00;99.90;;;;;;4989274;28;20037;-71
2023/05/05 01:20:48;;;;;;;7.20;2.22;;;15.90;99.90;;;;;;4987211;28;20054;-70
2023/05/05 01:23:55;;;;;;;5.63;2.75;;;15.80;99.90;;;;;;4977866;28;20177;-70
2023/05/05 01:26:50;;;;;;;9.40;2.35;;;15.40;99.90;;;;;;4953992;28;20054;-71
2023/05/05 01:29:43;;;;;;;7.28;2.58;;;15.50;99.90;;;;;;4979226;28;20026;-71
2023/05/05 01:32:22;;;;;;;4.78;2.03;;;15.60;99.90;;;;;;4979965;28;20085;-70
2023/05/05 01:35:12;;;;;;;7.28;2.60;;;15.60;99.90;;;;;;4991715;28;20034;-70
2023/05/05 01:38:11;;;;;;;3.92;2.03;;;15.60;99.90;;;;;;4965756;28;20088;-71
2023/05/05 01:40:44;;;;;;;4.25;2.03;;;15.60;99.90;;;;;;4995731;28;20100;-71
2023/05/05 01:43:14;;;;;;;8.18;2.40;;;15.60;99.90;;;;;;4993655;28;20034;-70
2023/05/05 01:45:44;;;;;;;5.18;2.20;;;15.70;99.90;;;;;;4991859;28;20125;-70
2023/05/05 01:48:11;;;;;;;6.90;3.03;;;15.70;99.90;;;;;;4979334;28;20089;-70
2023/05/05 01:50:40;;;;;;;3.65;1.83;;;15.70;99.90;;;;;;4991632;28;20027;-71
2023/05/05 01:53:08;;;;;;;3.03;1.70;;;15.70;99.90;;;;;;4963658;28;20034;-71
2023/05/05 01:55:36;;;;;;;5.15;1.80;;;15.80;99.90;;;;;;4991539;28;20109;-70
2023/05/05 01:58:04;;;;;;;4.68;1.83;;;15.80;99.90;;;;;;4979132;28;20565;-70
2023/05/05 02:00:32;;;;;;;4.97;2.40;;;15.70;99.90;;;;;;4991541;28;20033;-70
2023/05/05 02:02:59;;;;;;;2.88;1.67;;;15.60;99.90;;;;;;4947791;28;20041;-70
2023/05/05 02:05:26;;;;;;;7.68;2.45;;;15.60;99.90;;;;;;4991279;28;20068;-71
2023/05/05 02:07:57;;;;;;;3.45;2.28;;;15.50;99.90;;;;;;4979434;28;20035;-70
2023/05/05 02:10:23;;;;;;;3.55;2.00;;;15.40;99.90;;;;;;4991651;28;20140;-70
2023/05/05 02:12:51;;;;;;;4.50;2.53;;;15.40;99.90;;;;;;4979058;28;20520;-70
2023/05/05 02:15:19;;;;;;;4.78;2.22;;;15.40;99.90;;;;;;4978788;28;20058;-70
2023/05/05 02:17:47;;;;;;;4.72;2.47;;;15.60;99.90;;;;;;4985134;28;20034;-70
2023/05/05 02:20:14;;;;;;;3.58;2.22;;;15.60;99.90;;;;;;4991177;28;20478;-70
2023/05/05 02:22:40;;;;;;;4.75;2.35;;;15.60;99.90;;;;;;4979043;28;20480;-71
2023/05/05 02:25:08;;;;;;;3.65;1.85;;;15.60;99.90;;;;;;4990841;28;20077;-70
2023/05/05 02:27:36;;;;;;;4.93;2.22;;;15.60;99.90;;;;;;4978888;28;20031;-70
2023/05/05 02:30:11;;;;;;;5.72;2.10;;;15.40;99.90;;;;;;4990764;28;20029;-70
2023/05/05 02:32:45;;;;;;;7.57;2.30;;;15.40;99.90;;;;;;4979207;28;20034;-70
2023/05/05 02:35:20;;;;;;;3.83;2.05;;;15.40;99.90;;;;;;4963911;28;20471;-70
2023/05/05 02:38:01;;;;;;;4.32;2.85;;;15.40;99.90;;;;;;4973794;28;20035;-70
2023/05/05 02:40:29;;;;;;;;;;;15.30;99.90;;;;;;4995788;23;20039;-83
2023/05/05 02:42:58;;;;;;;9.80;2.53;;;15.20;99.90;;;;;;4962907;28;19983;-80
2023/05/05 02:45:27;;;;;;;9.38;2.70;;;15.10;99.90;;;;;;4966591;28;20479;-83
2023/05/05 02:47:52;;;;;;;5.97;2.70;;;15.00;99.90;;;;;;4971077;28;20069;-80
2023/05/05 02:50:18;;;;;;;5.40;2.60;;;15.00;99.90;;;;;;4948860;28;20077;-80
2023/05/05 02:52:45;;;;;;;5.70;2.10;;;15.00;99.90;;;;;;4968451;28;20375;-80
2023/05/05 02:55:11;;;;;;;4.78;2.50;;;14.90;99.90;;;;;;4967427;28;20130;-80
2023/05/05 02:57:48;;;;;;;3.80;2.50;;;14.90;99.90;;;;;;4950943;28;20117;-80
2023/05/05 03:00:35;;;;;;;6.28;3.58;;;14.90;99.90;;;;;;4950364;29;20059;-81
2023/05/05 03:03:39;;;;;;;3.63;1.95;;;14.80;99.90;;;;;;4971287;28;20047;-82
2023/05/05 03:06:20;;;;;;;6.35;2.65;;;14.80;99.90;;;;;;4963502;28;20487;-81
2023/05/05 03:09:33;;;;;;;6.18;2.97;;;14.80;99.90;;;;;;4970624;28;20690;-81
2023/05/05 03:12:03;;;;;;;7.28;3.50;;;14.80;99.90;;;;;;4958019;28;20043;-81
2023/05/05 03:14:35;;;;;;;4.65;2.55;;;14.80;99.90;;;;;;4969148;28;20360;-81
2023/05/05 03:17:02;;;;;;;4.50;2.70;;;14.90;99.90;;;;;;4955823;28;20072;-81
2023/05/05 03:19:30;;;;;;;4.53;2.28;;;14.80;99.90;;;;;;4970523;28;20035;-82
2023/05/05 03:21:55;;;;;;;6.78;2.75;;;14.70;99.90;;;;;;4942272;28;20114;-81
2023/05/05 03:24:21;;;;;;;4.55;2.47;;;14.70;99.90;;;;;;4971281;28;20158;-81
2023/05/05 03:26:49;;;;;;;4.25;2.58;;;14.60;99.90;;;;;;4959363;28;20573;-81
2023/05/05 03:29:15;;;;;;;8.27;2.63;;;14.60;99.90;;;;;;4971594;28;20035;-81
2023/05/05 03:31:41;;;;;;;3.33;2.20;;;14.60;99.90;;;;;;4958033;28;20494;-81
2023/05/05 03:34:07;;;;;;;4.07;2.15;;;14.60;99.90;;;;;;4970080;28;20042;-81
2023/05/05 03:36:34;;;;;;;4.40;2.53;;;14.70;99.90;;;;;;4959317;28;20581;-81
2023/05/05 03:39:00;;;;;;;14.30;3.05;;;14.70;99.90;;;;;;4970456;28;20142;-81
2023/05/05 03:41:26;;;;;;;6.20;2.55;;;14.60;99.90;;;;;;4958999;28;20027;-81
2023/05/05 03:43:52;;;;;;;5.95;2.83;;;14.60;99.90;;;;;;4970205;28;20042;-81
2023/05/05 03:46:19;;;;;;;6.45;2.63;;;14.70;99.90;;;;;;4957939;28;20040;-81
2023/05/05 03:48:45;;;;;;;4.13;2.30;;;14.70;99.90;;;;;;4970177;28;20041;-82
2023/05/05 03:51:12;;;;;;;6.18;3.08;;;14.70;99.90;;;;;;4959337;28;20382;-82
2023/05/05 03:53:38;;;;;;;4.13;2.42;;;14.80;99.90;;;;;;4971398;28;20042;-82
2023/05/05 03:56:04;;;;;;;3.25;2.38;;;14.80;99.90;;;;;;4958291;28;20035;-82
2023/05/05 03:58:30;;;;;;;5.70;3.50;;;14.90;99.90;;;;;;4970407;28;20054;-82
2023/05/05 04:00:56;;;;;;;7.55;3.63;;;14.90;99.90;;;;;;4958928;28;20461;-81
2023/05/05 04:03:22;;;;;;;4.38;2.55;;;14.90;99.90;;;;;;4973592;28;20022;-83
2023/05/05 04:05:48;;;;;;;6.00;2.63;;;14.80;99.90;;;;;;4962275;28;20036;-82
2023/05/05 04:08:13;;;;;;;4.72;2.60;;;14.80;99.90;;;;;;4957900;28;20097;-82
2023/05/05 04:10:39;;;;;;;4.97;2.58;;;14.70;99.90;;;;;;4963561;28;20498;-82
2023/05/05 04:13:05;;;;;;;8.75;3.10;;;14.60;99.90;;;;;;4957710;28;20026;-82
2023/05/05 04:15:31;;;;;;;4.47;2.67;;;14.50;99.90;;;;;;4960124;28;20044;-80
2023/05/05 04:17:56;;;;;;;9.40;3.28;;;14.50;99.90;;;;;;4972147;28;20553;-80
2023/05/05 04:20:22;;;;;;;5.70;3.20;;;14.50;99.90;;;;;;4966462;28;20032;-80
2023/05/05 04:22:48;;;;;;;10.27;3.47;;;14.40;99.90;;;;;;4969893;28;20030;-80
2023/05/05 04:25:14;;;;;;;5.93;3.25;;;14.40;99.90;;;;;;4968719;28;20026;-82
2023/05/05 04:27:39;;;;;;;6.07;2.97;;;14.30;99.90;;;;;;4967954;28;20070;-82
2023/05/05 04:30:06;;;;;;;6.38;3.60;;;14.40;99.90;;;;;;4972224;28;20494;-81
2023/05/05 04:32:32;;;;;;;7.78;3.72;;;14.50;99.90;;;;;;4980330;28;20026;-82
2023/05/05 04:34:58;;;;;;;6.88;2.85;;;14.50;99.90;;;;;;4973038;28;20026;-82
2023/05/05 04:37:24;;;;;;;5.20;2.60;;;14.50;99.90;;;;;;4926267;28;20027;-81
2023/05/05 04:39:50;;;;;;;7.45;3.72;;;14.70;99.90;;;;;;4968690;28;20034;-81
2023/05/05 04:42:16;;;;;;;5.10;2.55;;;14.80;99.90;;;;;;4960779;28;20039;-82
2023/05/05 04:44:42;;;;;;;12.10;2.90;;;14.80;99.90;;;;;;4974228;28;20105;-80
2023/05/05 04:47:07;;;;;;;5.90;3.22;;;14.60;99.90;;;;;;4949558;28;20035;-77
2023/05/05 04:49:33;;;;;;;5.85;2.90;;;14.50;99.90;;;;;;4961726;28;20419;-76
2023/05/05 04:51:59;;;;;;;4.60;2.70;;;14.50;99.90;;;;;;4953660;28;20068;-73
2023/05/05 04:54:25;;;;;;;5.28;3.15;;;14.40;99.90;;;;;;4942125;28;20039;-74
2023/05/05 04:56:50;;;;;;;7.30;3.15;;;14.50;99.90;;;;;;4954797;28;20040;-73
2023/05/05 04:59:16;;;;;;;6.95;3.97;;;14.50;99.90;;;;;;4972950;28;20039;-73
2023/05/05 05:01:42;;;;;;;5.07;3.13;;;14.50;99.90;;;;;;4959784;28;20517;-74
2023/05/05 05:04:09;;;;;;;8.63;3.47;;;14.50;99.90;;;;;;4973950;28;20027;-75
2023/05/05 05:06:35;;;;;;;8.35;4.05;;;14.60;99.90;;;;;;4961065;28;20082;-76
2023/05/05 05:09:01;;;;;;;11.82;4.53;;;14.70;99.90;;;;;;4974541;28;20422;-77
2023/05/05 05:11:27;;;;;;;8.55;3.20;;;14.90;99.90;;;;;;4938599;28;20081;-76
2023/05/05 05:13:53;;;;;;;5.35;3.05;;;15.00;99.90;;;;;;4940078;28;20056;-77
2023/05/05 05:16:18;;;;;;;9.73;3.90;;;15.20;99.90;;;;;;4963866;28;20138;-77
2023/05/05 05:18:44;;;;;;;7.22;3.40;;;15.30;99.90;;;;;;4984358;28;20047;-77
2023/05/05 05:21:10;;;;;;;6.90;3.45;;;15.40;99.90;;;;;;4961513;28;20045;-76
2023/05/05 05:23:36;;;;;;;8.02;3.40;;;15.40;99.90;;;;;;4974063;28;20033;-77
2023/05/05 05:26:04;;;;;;;9.70;3.78;;;15.40;99.90;;;;;;4962618;28;20502;-76
2023/05/05 05:28:30;;;;;;;6.32;3.38;;;15.50;99.90;;;;;;4974343;28;20027;-77
2023/05/05 05:30:56;;;;;;;6.50;3.38;;;15.50;99.90;;;;;;4961424;28;20463;-77
2023/05/05 05:33:22;;;;;;;4.63;2.65;;;15.40;99.90;;;;;;4960788;28;20023;-78
2023/05/05 05:35:47;;;;;;;7.18;3.17;;;15.50;99.90;;;;;;4961041;28;20038;-77
2023/05/05 05:38:13;;;;;;;9.43;3.85;;;15.60;99.90;;;;;;4974357;28;20027;-77
2023/05/05 05:40:39;;;;;;;7.22;3.13;;;15.80;99.90;;;;;;4964705;28;20531;-77
2023/05/05 05:43:05;;;;;;;7.68;3.95;;;16.00;99.90;;;;;;4972399;28;20050;-77
2023/05/05 05:45:31;;;;;;;5.90;3.10;;;16.10;99.90;;;;;;4963605;28;20034;-77
2023/05/05 05:47:56;;;;;;;6.97;3.70;;;16.20;99.90;;;;;;4963138;28;20027;-77
2023/05/05 05:50:25;;;;;;;6.63;3.20;;;16.30;99.90;;;;;;4967044;28;20076;-79
2023/05/05 05:52:51;;;;;;;7.63;3.95;;;16.30;99.90;;;;;;4971449;28;20031;-77
2023/05/05 05:55:17;;;;;;;6.00;3.20;;;16.30;99.90;;;;;;4970140;28;20027;-77
2023/05/05 05:57:43;;;;;;;8.82;4.28;;;16.30;99.90;;;;;;4954107;28;20027;-77
2023/05/05 06:00:10;;;;;;;6.03;3.35;;;16.20;99.90;;;;;;4969845;28;20561;-78
2023/05/05 06:02:35;;;;;;;5.43;3.25;;;16.20;99.90;;;;;;4958888;28;20030;-77
2023/05/05 06:05:01;;;;;;;5.35;3.40;;;16.30;99.90;;;;;;4974916;28;20034;-79
2023/05/05 06:07:27;;;;;;;8.40;3.60;;;16.20;99.90;;;;;;4963135;28;20022;-74
2023/05/05 06:09:53;;;;;;;5.15;3.05;;;16.20;99.90;;;;;;4971419;28;20031;-74
2023/05/05 06:12:18;;;;;;;6.22;3.38;;;16.30;99.90;;;;;;4958846;28;20034;-74
2023/05/05 06:14:44;;;;;;;6.32;3.58;;;16.50;99.90;;;;;;4970931;28;20039;-74
2023/05/05 06:17:10;;;;;;;7.05;3.20;;;16.50;99.90;;;;;;4945261;28;20133;-76
2023/05/05 06:19:38;;;;;;;9.25;3.15;;;16.60;99.90;;;;;;4972435;28;20431;-68
2023/05/05 06:22:04;;;;;;;5.75;3.15;;;16.80;99.90;;;;;;4958582;28;20478;-66
2023/05/05 06:24:30;;;;;;;5.28;3.33;;;17.00;99.90;;;;;;4954369;28;20027;-66
2023/05/05 06:26:58;;;;;;;8.32;3.22;;;17.00;99.90;;;;;;4960240;28;20027;-64
2023/05/05 06:29:24;;;;;;;5.65;2.88;;;17.20;99.90;;;;;;4972240;28;20628;-78
2023/05/05 06:31:50;;;;;;;8.10;3.20;;;17.00;99.90;;;;;;4958693;28;20574;-78
2023/05/05 06:34:17;;;;;;;7.72;3.15;;;17.00;99.90;;;;;;4971943;28;20113;-77
2023/05/05 06:36:42;;;;;;;7.28;3.08;;;17.00;99.90;;;;;;4959927;28;20043;-78
2023/05/05 06:39:08;;;;;;;5.93;3.28;;;16.80;99.90;;;;;;4971030;28;20031;-77
2023/05/05 06:41:34;;;;;;;9.98;3.95;;;16.90;99.90;;;;;;4942229;28;20606;-77
2023/05/05 06:44:00;;;;;;;10.45;3.78;;;16.90;99.90;;;;;;4971775;28;20049;-77
2023/05/05 06:46:25;;;;;;;8.10;3.45;;;17.00;99.90;;;;;;4954010;28;20479;-77
2023/05/05 06:48:51;;;;;;;8.10;3.90;;;17.10;99.90;;;;;;4970044;28;20101;-77
2023/05/05 06:51:17;;;;;;;6.35;3.45;;;17.10;99.90;;;;;;4959581;28;20046;-77
2023/05/05 06:53:43;;;;;;;5.53;3.33;;;17.30;99.90;;;;;;4960452;28;20072;-77
2023/05/05 06:56:10;;;;;;;6.85;3.20;;;17.40;99.90;;;;;;4958427;28;20046;-77
2023/05/05 06:58:36;;;;;;;14.80;3.53;;;17.40;99.90;;;;;;4967771;28;20034;-77
2023/05/05 07:01:02;;;;;;;8.13;3.20;;;17.70;99.90;;;;;;4944941;28;20035;-78
2023/05/05 07:03:28;;;;;;;6.70;3.33;;;17.80;99.90;;;;;;4965772;28;20018;-78
2023/05/05 07:05:54;;;;;;;6.07;2.67;;;18.10;99.90;;;;;;4958029;28;20031;-78
2023/05/05 07:08:20;;;;;;;3.60;2.50;;;18.10;99.90;;;;;;4970610;28;20026;-78
2023/05/05 07:10:46;;;;;;;6.82;3.03;;;18.20;99.90;;;;;;4959218;28;20134;-78
2023/05/05 07:13:15;;;;;;;5.28;2.65;;;18.10;99.90;;;;;;4958900;28;20149;-78
2023/05/05 07:15:45;;;;;;;6.05;3.15;;;18.30;99.90;;;;;;4958178;28;20047;-74
2023/05/05 07:18:16;;;;;;;4.22;2.72;;;18.40;99.90;;;;;;4957724;28;20105;-77
2023/05/05 07:20:45;;;;;;;5.97;2.63;;;18.40;99.90;;;;;;4958873;28;20040;-78
2023/05/05 07:23:11;;;;;;;4.18;2.67;;;18.50;99.90;;;;;;4971269;28;20030;-77
2023/05/05 07:25:37;;;;;;;6.43;2.83;;;18.70;99.90;;;;;;4959616;28;20035;-77
2023/05/05 07:28:03;;;;;;;8.52;3.08;;;18.50;99.90;;;;;;4968298;28;20027;-78
2023/05/05 07:30:29;;;;;;;4.57;3.28;;;18.90;99.90;;;;;;4960077;28;20461;-77
2023/05/05 07:32:55;;;;;;;7.68;2.88;;;18.70;99.90;;;;;;4967386;28;20408;-78
2023/05/05 07:35:22;;;;;;;10.05;2.50;;;19.00;99.90;;;;;;4965317;28;20036;-76
2023/05/05 07:37:48;;;;;;;3.80;2.40;;;19.00;99.90;;;;;;4971188;28;20093;-76
2023/05/05 07:40:14;;;;;;;4.32;2.28;;;19.00;99.90;;;;;;4952053;28;20038;-76
2023/05/05 07:42:40;;;;;;;4.43;2.10;;;19.30;99.90;;;;;;4966568;28;20046;-76
2023/05/05 07:45:06;;;;;;;3.70;2.17;;;19.20;99.90;;;;;;4971210;28;20030;-77
2023/05/05 07:47:32;;;;;;;4.05;2.30;;;19.30;99.90;;;;;;4958583;28;20122;-76
2023/05/05 07:49:58;;;;;;;7.03;2.47;;;19.50;99.90;;;;;;4973279;28;20109;-76
2023/05/05 07:52:24;;;;;;;5.20;2.08;;;19.60;99.90;;;;;;4969426;28;20038;-77
2023/05/05 07:54:49;;;;;;;4.22;2.25;;;19.70;99.90;;;;;;4975238;28;20113;-76
2023/05/05 07:57:15;;;;;;;3.55;2.08;;;19.60;99.90;;;;;;4962288;28;20034;-76
2023/05/05 07:59:42;;;;;;;3.40;1.95;;;19.50;99.90;;;;;;4975143;28;20046;-76
2023/05/05 08:02:12;;;;;;;5.38;2.65;;;19.60;99.90;;;;;;4945622;28;20486;-77
2023/05/05 08:04:42;;;;;;;5.45;2.17;;;19.60;99.90;;;;;;4973204;28;20512;-76
2023/05/05 08:07:09;;;;;;;3.63;1.80;;;19.50;99.90;;;;;;4962350;28;20467;-76
2023/05/05 08:09:35;;;;;;;7.40;2.35;;;19.30;99.90;;;;;;4973576;28;20031;-76
2023/05/05 08:12:02;;;;;;;5.60;2.15;;;19.30;99.90;;;;;;4944920;28;20061;-76
2023/05/05 08:14:29;;;;;;;2.33;1.50;;;19.20;99.90;;;;;;4973290;28;20034;-77
2023/05/05 08:16:54;;;;;;;3.28;1.60;;;19.40;99.90;;;;;;4948259;28;20036;-77
2023/05/05 08:19:20;;;;;;;3.65;2.10;;;19.70;99.90;;;;;;4974563;28;20027;-77
2023/05/05 08:21:46;;;;;;;7.18;2.35;;;19.70;99.90;;;;;;4960719;28;20113;-77
2023/05/05 08:24:11;;;;;;;6.40;2.00;;;19.80;99.90;;;;;;4973027;28;20382;-76
2023/05/05 08:26:38;;;;;;;3.60;1.77;;;19.60;99.90;;;;;;4960697;28;20558;-76
2023/05/05 08:29:04;;;;;;;3.92;1.88;;;19.70;99.90;;;;;;4973102;28;20061;-77
2023/05/05 08:31:38;;;;;;;4.30;2.47;;;19.80;99.90;;;;;;4961788;28;20459;-77
2023/05/05 08:34:05;;;;;;;3.38;2.03;;;20.00;99.90;;;;;;4972786;28;20035;-76
2023/05/05 08:36:32;;;;;;;4.07;1.90;;;20.10;99.90;;;;;;4960355;28;20490;-76
2023/05/05 08:38:58;;;;;;;2.80;1.63;;;20.10;99.90;;;;;;4972110;28;20093;-75
2023/05/05 08:41:25;;;;;;;3.28;1.60;;;20.00;99.90;;;;;;4989084;23;20069;-76
2023/05/05 08:43:50;;;;;;;3.70;2.00;;;20.10;99.90;;;;;;4987891;28;20026;-76
2023/05/05 08:46:16;;;;;;;3.78;1.70;;;20.10;99.90;;;;;;5000814;28;20031;-75
2023/05/05 08:48:44;;;;;;;2.40;1.48;;;20.20;99.90;;;;;;4990224;28;20038;-75
2023/05/05 08:51:18;;;;;;;2.78;1.20;;;20.30;99.90;;;;;;4968313;28;20030;-78
2023/05/05 08:53:53;;;;;;;9.88;2.88;;;20.40;99.90;;;;;;4983052;28;20038;-77
2023/05/05 08:56:20;;;;;;;2.75;1.23;;;20.70;99.90;;;;;;4988641;28;20026;-78
2023/05/05 08:58:47;;;;;;;3.17;1.67;;;20.90;99.90;;;;;;4993488;28;20089;-78
2023/05/05 09:01:16;;;;;;;3.38;1.60;;;21.20;99.90;;;;;;4983992;28;20030;-78
2023/05/05 09:03:43;;;;;;;4.53;2.10;;;21.30;99.90;;;;;;4987366;28;20037;-78
2023/05/05 09:06:10;;;;;;;2.80;1.25;;;21.40;99.90;;;;;;4984648;28;20496;-78
2023/05/05 09:08:40;;;;;;;3.28;1.20;;;21.60;99.90;;;;;;4984380;28;20397;-78
2023/05/05 09:11:06;;;;;;;1.90;1.23;;;21.50;99.90;;;;;;4988740;28;20544;-78
2023/05/05 09:13:31;;;;;;;3.38;1.42;;;21.60;99.90;;;;;;4992811;28;20050;-78
2023/05/05 09:15:58;;;;;;;5.25;1.50;;;21.50;99.90;;;;;;4987956;28;20041;-79
2023/05/05 09:18:25;;;;;;;1.95;1.17;;;21.60;99.90;;;;;;4986838;28;20022;-79
2023/05/05 09:20:50;;;;;;;2.78;1.60;;;21.70;99.90;;;;;;4988150;28;20510;-77
2023/05/05 09:23:20;;;;;;;3.47;1.30;;;21.70;99.90;;;;;;4992637;28;20157;-78
2023/05/05 09:26:03;;;;;;;2.38;1.33;;;21.90;99.90;;;;;;4983280;28;20027;-78
2023/05/05 09:28:29;;;;;;;2.45;0.95;;;22.10;99.90;;;;;;4992553;28;20038;-78
2023/05/05 09:30:55;;;;;;;2.15;0.80;;;22.10;99.90;;;;;;4986548;28;20090;-77
2023/05/05 09:33:30;;;;;;;2.58;1.48;;;22.20;99.90;;;;;;4992070;28;20045;-78
2023/05/05 09:35:56;;;;;;;5.00;1.15;;;22.40;99.90;;;;;;4984716;28;20499;-78
2023/05/05 09:38:24;;;;;;;1.63;1.20;;;22.40;99.90;;;;;;4991100;28;20037;-80
2023/05/05 09:40:52;;;;;;;3.40;1.10;;;22.50;99.90;;;;;;4984556;28;20043;-72
2023/05/05 09:43:21;;;;;;;2.78;1.48;;;22.10;99.90;;;;;;4992359;28;20026;-66
2023/05/05 09:45:48;;;;;;;8.52;1.30;;;22.40;99.90;;;;;;4982542;28;20395;-63
2023/05/05 09:48:29;;;;;;;2.80;0.90;;;22.90;99.90;;;;;;5000805;28;20037;-67
2023/05/05 09:50:56;;;;;;;1.77;0.90;;;22.90;99.50;;;;;;4986498;28;20034;-67
2023/05/05 09:53:23;;;;;;;2.08;1.15;;;22.80;99.90;;;;;;4991832;28;20026;-67
2023/05/05 09:55:57;;;;;;;1.40;0.73;;;22.70;99.50;;;;;;4987646;28;20027;-66
2023/05/05 09:58:26;;;;;;;2.55;0.90;;;23.20;99.30;;;;;;4990990;28;20034;-66
2023/05/05 10:00:53;;;;;;;2.67;1.33;;;23.40;98.80;;;;;;4969076;28;20035;-66
2023/05/05 10:03:19;;;;;;;10.15;1.45;;;23.40;98.20;;;;;;4991601;28;20022;-67
2023/05/05 10:05:57;;;;;;;1.50;0.60;;;23.80;98.50;;;;;;4982764;28;20113;-67
2023/05/05 10:08:25;;;;;;;1.08;0.50;;;23.90;97.10;;;;;;4990771;28;20022;-68
2023/05/05 10:11:00;;;;;;;1.38;0.95;;;23.60;95.10;;;;;;4982073;28;20027;-68
2023/05/05 10:13:26;;;;;;;0.95;0.60;;;23.80;95.20;;;;;;4991847;28;20061;-67
2023/05/05 10:15:55;;;;;;;3.42;0.63;;;24.40;94.60;;;;;;4982657;28;20035;-67
2023/05/05 10:18:27;;;;;;;0.52;0.38;;;24.50;93.00;;;;;;4978043;28;20398;-67
2023/05/05 10:21:02;;;;;;;1.33;0.65;;;24.40;92.30;;;;;;4982040;28;20036;-66
2023/05/05 10:23:49;;;;;;;3.90;0.82;;;24.60;93.40;;;;;;4990065;28;20180;-67
2023/05/05 10:26:18;;;;;;;1.63;0.80;;;24.70;93.20;;;;;;4987190;28;20038;-67
2023/05/05 10:28:50;;;;;;;7.65;1.08;;;24.30;93.80;;;;;;4990253;28;20030;-67
2023/05/05 10:31:23;;;;;;;0.75;0.55;;;24.70;94.10;;;;;;4982053;28;20054;-67
2023/05/05 10:34:19;;;;;;;6.40;1.67;;;24.80;93.40;;;;;;4990988;28;20031;-66
2023/05/05 10:36:45;;;;;;;5.38;3.00;;;24.30;94.00;;;;;;4986897;28;20046;-67
2023/05/05 10:39:15;;;;;;;2.47;1.02;;;24.50;94.30;;;;;;4991532;28;20097;-68
2023/05/05 10:41:40;;;;;;;1.38;0.60;;;24.70;93.80;;;;;;4966173;28;20049;-68
2023/05/05 10:44:09;;;;;;;1.05;0.50;;;24.90;92.90;;;;;;4991295;28;20030;-68
2023/05/05 10:46:35;;;;;;;3.28;0.95;;;25.20;92.50;;;;;;4980814;28;20081;-69
2023/05/05 10:49:29;;;;;;;1.95;0.82;;;24.90;93.90;;;;;;4989255;28;20022;-72
2023/05/05 10:52:29;;;;;;;1.17;0.82;;;24.80;93.60;;;;;;4986794;28;20042;-78
2023/05/05 10:55:15;;;;;;;1.75;1.05;;;24.30;93.90;;;;;;4989996;28;20113;-80
2023/05/05 10:57:44;;;;;;;2.60;1.17;;;24.10;94.10;;;;;;5002220;28;20046;-75
2023/05/05 11:00:39;;;;;;;2.53;1.30;;;24.40;94.80;;;;;;4955335;28;20058;-75
2023/05/05 11:03:19;;;;;;;1.75;0.77;;;24.80;93.80;;;;;;4990340;28;20030;-75
2023/05/05 11:06:06;;;;;;;1.02;0.65;;;24.80;93.30;;;;;;4986455;28;20127;-76
2023/05/05 11:08:37;;;;;;;1.38;0.60;;;24.70;92.70;;;;;;4991034;28;20058;-76
2023/05/05 11:11:04;;;;;;;0.93;0.60;;;24.60;92.60;;;;;;4980409;28;20034;-72
2023/05/05 11:13:30;;;;;;;3.67;1.38;;;24.40;92.50;;;;;;4989172;28;20030;-75
2023/05/05 11:16:00;;;;;;;2.30;0.80;;;24.30;93.40;;;;;;4982406;28;20042;-75
2023/05/05 11:18:43;;;;;;;2.17;0.85;;;24.50;92.40;;;;;;4985548;28;20050;-73
2023/05/05 11:21:16;;;;;;;1.05;0.55;;;24.60;92.80;;;;;;4982826;28;20482;-73
2023/05/05 11:23:50;;;;;;;1.63;0.85;;;24.60;93.10;;;;;;4989755;28;20492;-73
2023/05/05 11:26:38;;;;;;;2.20;1.00;;;24.00;94.00;;;;;;5001486;28;20026;-73
2023/05/05 11:29:05;;;;;;;4.82;1.45;;;24.40;94.60;;;;;;4992126;28;20109;-74
2023/05/05 11:31:31;;;;;;;1.08;0.55;;;24.30;94.40;;;;;;4986094;28;20030;-74
2023/05/05 11:34:26;;;;;;;0.88;0.57;;;24.70;94.30;;;;;;4989173;28;20046;-74
2023/05/05 11:37:00;;;;;;;1.10;0.75;;;24.40;94.70;;;;;;4959357;28;20041;-74
2023/05/05 11:39:43;;;;;;;5.47;1.35;;;24.60;93.50;;;;;;4989399;28;20397;-72
2023/05/05 11:42:25;;;;;;;1.45;0.90;;;24.90;94.20;;;;;;4980789;28;20466;-72
2023/05/05 11:44:51;;;;;;;2.42;1.02;;;24.60;93.80;;;;;;4989458;28;20027;-72
2023/05/05 11:47:17;;;;;;;0.93;0.52;;;24.50;93.70;;;;;;4974069;28;20035;-72
2023/05/05 11:49:43;;;;;;;1.67;0.80;;;24.30;93.70;;;;;;4989674;28;20037;-72
2023/05/05 11:52:13;;;;;;;1.05;0.70;;;23.90;94.40;;;;;;4980429;28;20038;-72
2023/05/05 11:54:46;;;;;;;2.85;1.38;;;23.60;95.10;;;;;;4987752;28;20156;-71
2023/05/05 11:57:14;;;;;;;0.77;0.60;;;23.60;95.30;;;;;;4980606;28;20031;-72
2023/05/05 11:59:55;;;;;;;2.08;0.88;;;23.70;95.60;;;;;;4989797;28;20034;-72
2023/05/05 12:02:23;;;;;;;1.00;0.68;;;24.10;95.40;;;;;;4979898;28;20081;-72
2023/05/05 12:04:49;;;;;;;3.28;0.98;;;24.60;94.90;;;;;;4988128;28;20030;-72
2023/05/05 12:07:32;;;;;;;5.00;1.38;;;24.70;95.10;;;;;;4984884;28;20027;-72
2023/05/05 12:09:59;;;;;;;1.55;1.15;;;24.80;94.80;;;;;;4989803;28;20042;-72
2023/05/05 12:12:38;;;;;;;7.38;0.93;;;25.10;93.70;;;;;;4980329;28;20057;-72
2023/05/05 12:15:05;;;;;;;2.92;1.00;;;25.30;94.80;;;;;;4988073;28;20118;-71
2023/05/05 12:17:41;;;;;;;2.03;0.82;;;25.30;94.10;;;;;;4978313;28;20042;-72
2023/05/05 12:20:08;;;;;;;6.78;0.85;;;25.40;93.20;;;;;;4988164;28;20048;-72
2023/05/05 12:22:34;;;;;;;1.63;0.60;;;25.10;93.50;;;;;;4980956;28;20038;-72
2023/05/05 12:25:06;;;;;;;1.30;0.70;;;25.50;93.10;;;;;;4992779;28;20042;-72
2023/05/05 12:27:32;;;;;;;1.45;0.63;;;25.40;93.00;;;;;;4983154;28;20121;-72
2023/05/05 12:30:15;;;;;;;3.95;0.70;;;25.50;94.30;;;;;;4991203;28;20661;-72
2023/05/05 12:32:41;;;;;;;1.15;0.60;;;25.80;92.40;;;;;;4973393;28;20039;-68
2023/05/05 12:35:09;;;;;;;1.90;0.95;;;26.10;91.90;;;;;;4984195;28;20034;-72
2023/05/05 12:37:35;;;;;;;1.50;0.82;;;26.10;92.50;;;;;;4991121;28;20038;-74
2023/05/05 12:40:01;;;;;;;0.90;0.50;;;26.10;92.40;;;;;;4974828;28;20046;-72
2023/05/05 12:42:27;;;;;;;8.18;0.70;;;25.70;91.90;;;;;;4956190;28;1071360;-73
2023/05/05 12:44:53;;;;;;;0.77;0.55;;;25.30;93.00;;;;;;4974311;28;20045;-73
2023/05/05 12:47:30;;;;;;;3.03;1.00;;;25.40;93.00;;;;;;4977806;28;20027;-72
2023/05/05 12:49:58;;;;;;;0.80;0.47;;;24.70;92.70;;;;;;4974928;28;20037;-71
2023/05/05 12:52:38;;;;;;;1.30;0.60;;;24.70;93.20;;;;;;4991993;28;20030;-69
2023/05/05 12:55:04;;;;;;;3.75;0.90;;;24.80;93.30;;;;;;4966731;28;20058;-70
2023/05/05 12:57:30;;;;;;;1.42;0.90;;;24.80;93.90;;;;;;4988291;28;20034;-71
2023/05/05 12:59:56;;;;;;;1.08;0.57;;;25.10;93.20;;;;;;4977832;28;20158;-70
2023/05/05 13:02:33;;;;;;;3.25;1.15;;;24.90;93.00;;;;;;4975866;28;20044;-70